createdAt,value
2019-04-10T00:01:20.593Z,100.00
2019-04-10T00:03:51.929Z,100.00
2019-04-10T00:06:23.769Z,100.00
2019-04-10T00:08:55.421Z,100.00
2019-04-10T00:11:26.991Z,100.00
2019-04-10T00:13:58.736Z,100.00
2019-04-10T00:16:30.105Z,100.00
2019-04-10T00:19:02.320Z,100.00
2019-04-10T00:21:33.699Z,100.00
2019-04-10T00:24:06.024Z,100.00
2019-04-10T00:26:39.510Z,100.00
2019-04-10T00:29:12.010Z,100.00
2019-04-10T00:31:44.503Z,100.00
2019-04-10T00:34:15.966Z,100.00
2019-04-10T00:36:47.516Z,100.00
2019-04-10T00:39:22.315Z,100.00
2019-04-10T00:41:56.809Z,100.00
2019-04-10T00:44:28.237Z,100.00
2019-04-10T00:46:59.481Z,100.00
2019-04-10T00:49:31.469Z,100.00
2019-04-10T00:52:03.884Z,100.00
2019-04-10T00:54:42.175Z,100.00
2019-04-10T00:57:13.492Z,100.00
2019-04-10T00:59:45.720Z,100.00
2019-04-10T01:02:16.978Z,100.00
2019-04-10T01:04:48.849Z,100.00
2019-04-10T01:07:32.575Z,100.00
2019-04-10T01:09:53.454Z,100.00
2019-04-10T01:12:25.128Z,100.00
2019-04-10T01:14:56.534Z,100.00
2019-04-10T01:17:28.533Z,100.00
2019-04-10T01:20:00.632Z,100.00
2019-04-10T01:22:32.933Z,100.00
2019-04-10T01:25:04.594Z,100.00
2019-04-10T01:27:36.117Z,100.00
2019-04-10T01:30:10.498Z,100.00
2019-04-10T01:32:41.950Z,100.00
2019-04-10T01:35:13.986Z,100.00
2019-04-10T01:37:51.906Z,100.00
2019-04-10T01:40:19.160Z,100.00
2019-04-10T01:43:02.303Z,100.00
2019-04-10T01:45:27.256Z,100.00
2019-04-10T01:47:59.542Z,100.00
2019-04-10T01:50:33.186Z,100.00
2019-04-10T01:53:04.459Z,100.00
2019-04-10T01:55:35.837Z,100.00
2019-04-10T01:58:11.419Z,100.00
2019-04-10T02:00:46.289Z,100.00
2019-04-10T02:03:18.095Z,100.00
2019-04-10T02:05:49.971Z,100.00
2019-04-10T02:08:21.509Z,100.00
2019-04-10T02:10:52.910Z,100.00
2019-04-10T02:13:25.209Z,100.00
2019-04-10T02:15:56.834Z,100.00
2019-04-10T02:18:28.216Z,100.00
2019-04-10T02:20:59.429Z,100.00
2019-04-10T02:23:30.888Z,100.00
2019-04-10T02:26:03.237Z,100.00
2019-04-10T02:28:36.042Z,100.00
2019-04-10T02:31:07.476Z,100.00
2019-04-10T02:33:38.921Z,100.00
2019-04-10T02:36:10.841Z,100.00
2019-04-10T02:38:59.315Z,100.00
2019-04-10T02:41:17.410Z,100.00
2019-04-10T02:43:48.712Z,100.00
2019-04-10T02:46:22.023Z,100.00
2019-04-10T02:48:54.275Z,100.00
2019-04-10T02:51:27.061Z,100.00
2019-04-10T02:54:00.451Z,100.00
2019-04-10T02:56:32.715Z,100.00
2019-04-10T02:59:05.185Z,100.00
2019-04-10T03:01:37.940Z,100.00
2019-04-10T03:04:11.396Z,100.00
2019-04-10T03:06:42.891Z,100.00
2019-04-10T03:09:28.948Z,100.00
2019-04-10T03:11:47.586Z,100.00
2019-04-10T03:14:19.058Z,100.00
2019-04-10T03:16:53.120Z,100.00
2019-04-10T03:19:25.513Z,100.00
2019-04-10T03:21:57.688Z,100.00
2019-04-10T03:24:31.650Z,100.00
2019-04-10T03:27:03.771Z,100.00
2019-04-10T03:29:38.266Z,100.00
2019-04-10T03:32:54.563Z,100.00
2019-04-10T03:35:27.524Z,100.00
2019-04-10T03:37:59.399Z,100.00
2019-04-10T03:40:31.346Z,100.00
2019-04-10T03:43:03.543Z,100.00
2019-04-10T03:45:34.999Z,100.00
2019-04-10T03:48:06.684Z,100.00
2019-04-10T03:50:37.850Z,100.00
2019-04-10T03:53:09.697Z,100.00
2019-04-10T03:55:41.059Z,100.00
2019-04-10T03:58:15.632Z,100.00
2019-04-10T04:00:47.168Z,100.00
2019-04-10T04:03:18.475Z,100.00
2019-04-10T04:05:49.728Z,100.00
2019-04-10T04:08:21.591Z,100.00
2019-04-10T04:10:53.654Z,100.00
2019-04-10T04:13:25.755Z,100.00
2019-04-10T04:15:58.117Z,100.00
2019-04-10T04:18:29.493Z,100.00
2019-04-10T04:21:01.523Z,100.00
2019-04-10T04:23:34.039Z,100.00
2019-04-10T04:26:05.626Z,100.00
2019-04-10T04:28:37.258Z,100.00
2019-04-10T04:31:09.416Z,100.00
2019-04-10T04:33:41.121Z,100.00
2019-04-10T04:36:12.471Z,100.00
2019-04-10T04:38:43.906Z,100.00
2019-04-10T04:41:15.444Z,100.00
2019-04-10T04:43:48.415Z,100.00
2019-04-10T04:46:20.558Z,100.00
2019-04-10T04:48:52.306Z,100.00
2019-04-10T04:51:25.860Z,100.00
2019-04-10T04:53:56.940Z,100.00
2019-04-10T04:56:29.179Z,100.00
2019-04-10T04:59:01.450Z,100.00
2019-04-10T05:01:33.695Z,100.00
2019-04-10T05:04:06.759Z,100.00
2019-04-10T05:06:38.285Z,100.00
2019-04-10T05:09:09.909Z,100.00
2019-04-10T05:11:44.794Z,100.00
2019-04-10T05:14:16.008Z,100.00
2019-04-10T05:16:47.832Z,100.00
2019-04-10T05:19:19.161Z,100.00
2019-04-10T05:21:50.614Z,100.00
2019-04-10T05:24:22.042Z,100.00
2019-04-10T05:26:53.601Z,100.00
2019-04-10T05:29:28.308Z,100.00
2019-04-10T05:31:58.828Z,100.00
2019-04-10T05:34:30.166Z,100.00
2019-04-10T05:37:01.796Z,100.00
2019-04-10T05:39:40.615Z,100.00
2019-04-10T05:42:06.419Z,100.00
2019-04-10T05:44:38.207Z,100.00
2019-04-10T05:47:10.317Z,100.00
2019-04-10T05:49:41.717Z,100.00
2019-04-10T05:52:13.466Z,100.00
2019-04-10T05:54:47.207Z,100.00
2019-04-10T05:57:20.287Z,100.00
2019-04-10T05:59:52.657Z,100.00
2019-04-10T06:02:25.100Z,100.00
2019-04-10T06:04:56.653Z,100.00
2019-04-10T06:07:27.798Z,100.00
2019-04-10T06:10:04.335Z,100.00
2019-04-10T06:12:32.382Z,100.00
2019-04-10T06:15:04.334Z,100.00
2019-04-10T06:17:38.633Z,100.00
2019-04-10T06:20:11.184Z,100.00
2019-04-10T06:22:43.839Z,100.00
2019-04-10T06:25:16.364Z,100.00
2019-04-10T06:27:51.177Z,100.00
2019-04-10T06:30:22.488Z,100.00
2019-04-10T06:32:53.968Z,100.00
2019-04-10T06:35:26.155Z,100.00
2019-04-10T06:37:57.419Z,100.00
2019-04-10T06:40:29.486Z,100.00
2019-04-10T06:43:02.751Z,100.00
2019-04-10T06:45:34.060Z,100.00
2019-04-10T06:48:06.838Z,100.00
2019-04-10T06:50:39.189Z,100.00
2019-04-10T06:53:11.515Z,100.00
2019-04-10T06:55:42.782Z,100.00
2019-04-10T06:58:15.828Z,100.00
2019-04-10T07:00:53.230Z,100.00
2019-04-10T07:03:23.232Z,100.00
2019-04-10T07:06:06.361Z,100.00
2019-04-10T07:09:27.063Z,100.00
2019-04-10T07:12:01.748Z,100.00
2019-04-10T07:14:36.287Z,100.00
2019-04-10T07:17:07.499Z,100.00
2019-04-10T07:19:41.485Z,100.00
2019-04-10T07:22:14.663Z,100.00
2019-04-10T07:24:46.182Z,100.00
2019-04-10T07:27:19.588Z,100.00
2019-04-10T07:29:54.997Z,100.00
2019-04-10T07:32:24.358Z,100.00
2019-04-10T07:34:59.126Z,100.00
2019-04-10T07:37:29.653Z,100.00
2019-04-10T07:40:04.216Z,100.00
2019-04-10T07:42:39.738Z,100.00
2019-04-10T07:45:09.668Z,100.00
2019-04-10T07:47:41.928Z,100.00
2019-04-10T07:50:14.282Z,100.00
2019-04-10T07:52:46.051Z,100.00
2019-04-10T07:55:17.275Z,100.00
2019-04-10T07:57:50.010Z,100.00
2019-04-10T08:00:22.228Z,100.00
2019-04-10T08:02:53.675Z,100.00
2019-04-10T08:05:25.135Z,100.00
2019-04-10T08:07:57.492Z,100.00
2019-04-10T08:10:29.095Z,100.00
2019-04-10T08:13:01.364Z,100.00
2019-04-10T08:15:33.726Z,100.00
2019-04-10T08:18:06.595Z,100.00
2019-04-10T08:20:38.740Z,100.00
2019-04-10T08:23:10.190Z,100.00
2019-04-10T08:25:43.114Z,100.00
2019-04-10T08:28:15.600Z,100.00
2019-04-10T08:30:46.896Z,100.00
2019-04-10T08:33:18.217Z,100.00
2019-04-10T08:35:49.665Z,100.00
2019-04-10T08:38:21.776Z,100.00
2019-04-10T08:40:54.396Z,100.00
2019-04-10T08:43:27.066Z,100.00
2019-04-10T08:45:58.923Z,100.00
2019-04-10T08:48:31.497Z,100.00
2019-04-10T08:51:03.258Z,100.00
2019-04-10T08:53:36.212Z,100.00
2019-04-10T08:56:07.657Z,100.00
2019-04-10T08:58:39.513Z,100.00
2019-04-10T09:01:13.304Z,100.00
2019-04-10T09:03:48.913Z,100.00
2019-04-10T09:06:21.348Z,100.00
2019-04-10T09:08:53.096Z,100.00
2019-04-10T09:11:29.737Z,100.00
2019-04-10T09:14:01.045Z,100.00
2019-04-10T09:16:32.940Z,100.00
2019-04-10T09:19:04.468Z,100.00
2019-04-10T09:21:37.344Z,100.00
2019-04-10T09:24:10.407Z,100.00
2019-04-10T09:26:41.779Z,100.00
2019-04-10T09:29:14.068Z,100.00
2019-04-10T09:31:46.093Z,100.00
2019-04-10T09:34:17.953Z,100.00
2019-04-10T09:36:51.468Z,100.00
2019-04-10T09:39:23.327Z,100.00
2019-04-10T09:41:54.590Z,100.00
2019-04-10T09:44:25.882Z,100.00
2019-04-10T09:46:57.878Z,100.00
2019-04-10T09:49:35.590Z,100.00
2019-04-10T09:52:02.738Z,100.00
2019-04-10T09:54:36.850Z,100.00
2019-04-10T09:57:09.104Z,100.00
2019-04-10T09:59:41.243Z,100.00
2019-04-10T10:02:13.276Z,100.00
2019-04-10T10:04:45.902Z,100.00
2019-04-10T10:07:18.412Z,100.00
2019-04-10T10:09:51.442Z,100.00
2019-04-10T10:12:23.628Z,100.00
2019-04-10T10:14:57.559Z,100.00
2019-04-10T10:17:30.858Z,100.00
2019-04-10T10:20:03.676Z,100.00
2019-04-10T10:22:36.930Z,100.00
2019-04-10T10:25:09.497Z,100.00
2019-04-10T10:27:40.888Z,100.00
2019-04-10T10:30:13.454Z,100.00
2019-04-10T10:32:45.595Z,100.00
2019-04-10T10:35:16.972Z,100.00
2019-04-10T10:37:48.499Z,100.00
2019-04-10T10:40:20.050Z,100.00
2019-04-10T10:42:54.005Z,100.00
2019-04-10T10:45:25.399Z,100.00
2019-04-10T10:47:56.779Z,100.00
2019-04-10T10:50:28.954Z,100.00
2019-04-10T10:53:01.929Z,100.00
2019-04-10T10:55:33.838Z,100.00
2019-04-10T10:58:05.820Z,99.73
2019-04-10T11:00:37.254Z,100.00
2019-04-10T11:03:09.905Z,100.00
2019-04-10T11:05:42.313Z,100.00
2019-04-10T11:08:13.731Z,99.82
2019-04-10T11:10:50.460Z,97.13
2019-04-10T11:13:20.032Z,95.43
2019-04-10T11:15:52.508Z,95.74
2019-04-10T11:18:24.735Z,97.09
2019-04-10T11:21:02.929Z,96.97
2019-04-10T11:23:30.573Z,96.56
2019-04-10T11:26:02.301Z,100.00
2019-04-10T11:28:34.271Z,97.73
2019-04-10T11:31:06.975Z,97.04
2019-04-10T11:33:39.908Z,98.90
2019-04-10T11:36:12.473Z,100.00
2019-04-10T11:38:45.345Z,97.06
2019-04-10T11:41:18.961Z,96.60
2019-04-10T11:43:52.620Z,100.00
2019-04-10T11:46:31.008Z,98.84
2019-04-10T11:49:00.865Z,100.00
2019-04-10T11:51:34.239Z,100.00
2019-04-10T11:54:11.024Z,100.00
2019-04-10T11:56:38.766Z,100.00
2019-04-10T11:59:12.362Z,100.00
2019-04-10T12:01:44.816Z,100.00
2019-04-10T12:04:19.270Z,100.00
2019-04-10T12:06:53.565Z,100.00
2019-04-10T12:10:08.525Z,100.00
2019-04-10T12:11:59.415Z,100.00
2019-04-10T12:14:31.910Z,100.00
2019-04-10T12:17:03.504Z,100.00
2019-04-10T12:19:34.822Z,100.00
2019-04-10T12:22:07.376Z,100.00
2019-04-10T12:24:38.938Z,100.00
2019-04-10T12:27:10.408Z,100.00
2019-04-10T12:29:42.629Z,100.00
2019-04-10T12:32:14.597Z,100.00
2019-04-10T12:34:46.557Z,100.00
2019-04-10T12:37:17.819Z,100.00
2019-04-10T12:39:49.485Z,100.00
2019-04-10T12:42:21.849Z,100.00
2019-04-10T12:44:53.221Z,100.00
2019-04-10T12:47:24.445Z,100.00
2019-04-10T12:49:56.907Z,100.00
2019-04-10T12:52:30.268Z,100.00
2019-04-10T12:55:02.119Z,100.00
2019-04-10T12:57:33.683Z,100.00
2019-04-10T13:00:07.993Z,100.00
2019-04-10T13:02:39.600Z,100.00
2019-04-10T13:05:13.353Z,100.00
2019-04-10T13:07:45.587Z,100.00
2019-04-10T13:10:16.915Z,100.00
2019-04-10T13:12:49.203Z,100.00
2019-04-10T13:15:21.403Z,100.00
2019-04-10T13:17:53.282Z,100.00
2019-04-10T13:20:25.962Z,100.00
2019-04-10T13:22:58.299Z,100.00
2019-04-10T13:25:32.933Z,100.00
2019-04-10T13:28:05.409Z,100.00
2019-04-10T13:30:46.944Z,100.00
2019-04-10T13:33:12.219Z,100.00
2019-04-10T13:35:43.548Z,100.00
2019-04-10T13:38:23.968Z,100.00
2019-04-10T13:40:48.137Z,100.00
2019-04-10T13:43:20.028Z,100.00
2019-04-10T13:45:54.164Z,100.00
2019-04-10T13:48:27.180Z,100.00
2019-04-10T13:50:59.065Z,100.00
2019-04-10T13:53:30.645Z,100.00
2019-04-10T13:56:02.032Z,100.00
2019-04-10T13:58:33.328Z,100.00
2019-04-10T14:01:07.203Z,100.00
2019-04-10T14:03:41.513Z,100.00
2019-04-10T14:06:13.599Z,100.00
2019-04-10T14:09:04.704Z,100.00
2019-04-10T14:11:19.296Z,100.00
2019-04-10T14:13:52.409Z,100.00
2019-04-10T14:16:24.479Z,100.00
2019-04-10T14:18:57.100Z,100.00
2019-04-10T14:21:29.083Z,100.00
2019-04-10T14:24:03.465Z,100.00
2019-04-10T14:26:58.013Z,100.00
2019-04-10T14:29:32.083Z,100.00
2019-04-10T14:32:07.146Z,100.00
2019-04-10T14:34:38.785Z,100.00
2019-04-10T14:37:13.699Z,100.00
2019-04-10T14:42:16.545Z,100.00
2019-04-10T14:44:48.641Z,100.00
2019-04-10T14:47:20.651Z,100.00
2019-04-10T14:49:53.656Z,100.00
2019-04-10T14:52:25.458Z,100.00
2019-04-10T14:54:57.664Z,100.00
2019-04-10T14:57:28.935Z,100.00
2019-04-10T15:00:00.439Z,100.00
2019-04-10T15:02:32.770Z,100.00
2019-04-10T15:05:10.045Z,100.00
2019-04-10T15:07:42.734Z,100.00
2019-04-10T15:10:16.738Z,100.00
2019-04-10T15:12:48.082Z,100.00
2019-04-10T15:15:20.552Z,100.00
2019-04-10T15:17:52.024Z,100.00
2019-04-10T15:20:23.393Z,100.00
2019-04-10T15:22:54.921Z,100.00
2019-04-10T15:25:29.113Z,100.00
2019-04-10T15:28:00.643Z,100.00
2019-04-10T15:30:32.854Z,100.00
2019-04-10T15:33:04.543Z,100.00
2019-04-10T15:35:38.782Z,100.00
2019-04-10T15:38:10.009Z,100.00
2019-04-10T15:40:42.099Z,100.00
2019-04-10T15:43:13.639Z,100.00
2019-04-10T15:45:46.243Z,100.00
2019-04-10T15:48:18.843Z,100.00
2019-04-10T15:50:50.178Z,100.00
2019-04-10T15:53:22.997Z,100.00
2019-04-10T15:55:54.434Z,100.00
2019-04-10T15:58:25.736Z,100.00
2019-04-10T16:00:59.409Z,100.00
2019-04-10T16:03:34.542Z,100.00
2019-04-10T16:06:06.403Z,100.00
2019-04-10T16:08:38.622Z,100.00
2019-04-10T16:11:21.522Z,100.00
2019-04-10T16:13:54.918Z,100.00
2019-04-10T16:16:48.887Z,100.00
2019-04-10T16:19:40.098Z,100.00
2019-04-10T16:22:24.233Z,100.00
2019-04-10T16:24:57.608Z,100.00
2019-04-10T16:27:30.481Z,100.00
2019-04-10T16:30:03.794Z,100.00
2019-04-10T16:32:35.683Z,100.00
2019-04-10T16:35:07.542Z,100.00
2019-04-10T16:37:39.836Z,100.00
2019-04-10T16:40:13.254Z,100.00
2019-04-10T16:42:44.698Z,100.00
2019-04-10T16:45:16.311Z,100.00
2019-04-10T16:47:47.899Z,100.00
2019-04-10T16:50:19.541Z,100.00
2019-04-10T16:52:51.456Z,100.00
2019-04-10T16:55:22.834Z,100.00
2019-04-10T16:57:54.217Z,100.00
2019-04-10T17:00:26.935Z,100.00
2019-04-10T17:03:01.871Z,100.00
2019-04-10T17:05:35.027Z,100.00
2019-04-10T17:08:07.646Z,100.00
2019-04-10T17:10:39.071Z,100.00
2019-04-10T17:13:10.736Z,100.00
2019-04-10T17:15:43.944Z,100.00
2019-04-10T17:18:15.245Z,100.00
2019-04-10T17:20:46.933Z,100.00
2019-04-10T17:23:20.327Z,100.00
2019-04-10T17:25:53.069Z,100.00
2019-04-10T17:28:28.208Z,100.00
2019-04-10T17:31:00.255Z,100.00
2019-04-10T17:33:32.329Z,100.00
2019-04-10T17:36:04.296Z,100.00
2019-04-10T17:38:38.933Z,100.00
2019-04-10T17:41:11.219Z,100.00
2019-04-10T17:43:43.450Z,100.00
2019-04-10T17:46:19.393Z,100.00
2019-04-10T17:48:51.736Z,100.00
2019-04-10T17:51:25.879Z,100.00
2019-04-10T17:53:57.966Z,100.00
2019-04-10T17:56:30.585Z,100.00
2019-04-10T17:59:02.372Z,100.00
2019-04-10T18:01:34.764Z,100.00
2019-04-10T18:04:07.615Z,100.00
2019-04-10T18:06:39.568Z,100.00
2019-04-10T18:09:11.737Z,100.00
2019-04-10T18:11:44.353Z,100.00
2019-04-10T18:14:15.861Z,100.00
2019-04-10T18:16:47.769Z,100.00
2019-04-10T18:19:19.200Z,100.00
2019-04-10T18:21:51.013Z,100.00
2019-04-10T18:24:26.763Z,100.00
2019-04-10T18:27:00.082Z,100.00
2019-04-10T18:29:35.070Z,100.00
2019-04-10T18:32:07.721Z,100.00
2019-04-10T18:34:40.366Z,100.00
2019-04-10T18:37:15.387Z,100.00
2019-04-10T18:39:45.016Z,100.00
2019-04-10T18:42:17.290Z,100.00
2019-04-10T18:44:49.089Z,100.00
2019-04-10T18:47:21.821Z,100.00
2019-04-10T18:49:54.011Z,100.00
2019-04-10T18:52:25.532Z,100.00
2019-04-10T18:54:57.047Z,100.00
2019-04-10T18:57:32.339Z,100.00
2019-04-10T19:00:26.251Z,100.00
2019-04-10T19:03:23.549Z,100.00
2019-04-10T19:05:58.943Z,100.00
2019-04-10T19:08:30.889Z,100.00
2019-04-10T19:11:16.838Z,100.00
2019-04-10T19:13:35.101Z,100.00
2019-04-10T19:16:08.918Z,100.00
2019-04-10T19:18:41.247Z,100.00
2019-04-10T19:21:13.794Z,100.00
2019-04-10T19:23:45.685Z,100.00
2019-04-10T19:26:21.281Z,100.00
2019-04-10T19:28:52.971Z,100.00
2019-04-10T19:31:24.754Z,100.00
2019-04-10T19:33:56.990Z,100.00
2019-04-10T19:36:28.339Z,100.00
2019-04-10T19:39:00.096Z,100.00
2019-04-10T19:41:36.202Z,100.00
2019-04-10T19:44:04.942Z,100.00
2019-04-10T19:46:36.228Z,100.00
2019-04-10T19:49:08.246Z,100.00
2019-04-10T19:51:40.616Z,100.00
2019-04-10T19:54:13.605Z,100.00
2019-04-10T19:56:45.032Z,100.00
2019-04-10T19:59:16.707Z,100.00
2019-04-10T20:01:48.534Z,100.00
2019-04-10T20:04:20.718Z,100.00
2019-04-10T20:06:52.315Z,100.00
2019-04-10T20:09:24.261Z,100.00
2019-04-10T20:11:57.669Z,100.00
2019-04-10T20:14:28.660Z,100.00
2019-04-10T20:17:00.072Z,100.00
2019-04-10T20:19:31.401Z,100.00
2019-04-10T20:22:04.054Z,100.00
2019-04-10T20:24:36.515Z,100.00
2019-04-10T20:27:09.833Z,100.00
2019-04-10T20:29:43.450Z,100.00
2019-04-10T20:32:15.662Z,100.00
2019-04-10T20:34:47.544Z,100.00
2019-04-10T20:37:18.945Z,100.00
2019-04-10T20:39:50.151Z,100.00
2019-04-10T20:42:22.504Z,100.00
2019-04-10T20:44:54.595Z,100.00
2019-04-10T20:47:26.718Z,100.00
2019-04-10T20:49:59.496Z,100.00
2019-04-10T20:52:30.854Z,100.00
2019-04-10T20:55:02.159Z,100.00
2019-04-10T20:57:33.390Z,100.00
2019-04-10T21:00:07.355Z,100.00
2019-04-10T21:02:38.868Z,100.00
2019-04-10T21:05:11.963Z,100.00
2019-04-10T21:07:43.945Z,100.00
2019-04-10T21:10:17.118Z,100.00
2019-04-10T21:12:50.448Z,100.00
2019-04-10T21:15:21.724Z,100.00
2019-04-10T21:17:52.931Z,100.00
2019-04-10T21:20:25.647Z,100.00
2019-04-10T21:22:57.703Z,100.00
2019-04-10T21:25:28.976Z,100.00
2019-04-10T21:28:04.739Z,100.00
2019-04-10T21:31:03.698Z,100.00
2019-04-10T21:33:56.855Z,100.00
2019-04-10T21:36:29.926Z,100.00
2019-04-10T21:39:01.496Z,100.00
2019-04-10T21:41:34.713Z,100.00
2019-04-10T21:44:06.410Z,100.00
2019-04-10T21:46:38.815Z,100.00
2019-04-10T21:49:11.431Z,100.00
2019-04-10T21:51:44.841Z,100.00
2019-04-10T21:54:18.505Z,100.00
2019-04-10T21:56:49.824Z,100.00
2019-04-10T21:59:22.552Z,100.00
2019-04-10T22:01:54.927Z,100.00
2019-04-10T22:04:27.283Z,100.00
2019-04-10T22:07:16.116Z,100.00
2019-04-10T22:09:59.873Z,100.00
2019-04-10T22:12:38.168Z,100.00
2019-04-10T22:15:12.830Z,100.00
2019-04-10T22:17:44.612Z,100.00
2019-04-10T22:20:15.902Z,100.00
2019-04-10T22:22:47.173Z,100.00
2019-04-10T22:25:19.523Z,100.00
2019-04-10T22:27:52.105Z,100.00
2019-04-10T22:30:23.408Z,100.00
2019-04-10T22:32:55.630Z,100.00
2019-04-10T22:35:27.807Z,100.00
2019-04-10T22:38:00.289Z,100.00
2019-04-10T22:40:31.981Z,100.00
2019-04-10T22:43:03.685Z,100.00
2019-04-10T22:45:36.018Z,100.00
2019-04-10T22:48:14.720Z,100.00
2019-04-10T22:50:47.120Z,100.00
2019-04-10T22:53:19.349Z,100.00
2019-04-10T22:55:50.920Z,100.00
2019-04-10T22:58:22.917Z,100.00
2019-04-10T23:00:54.169Z,100.00
2019-04-10T23:03:25.527Z,100.00
2019-04-10T23:05:56.830Z,100.00
2019-04-10T23:08:28.077Z,100.00
2019-04-10T23:10:59.552Z,100.00
2019-04-10T23:13:30.759Z,100.00
2019-04-10T23:16:02.081Z,100.00
2019-04-10T23:18:33.822Z,100.00
2019-04-10T23:21:06.115Z,100.00
2019-04-10T23:23:37.701Z,100.00
2019-04-10T23:26:09.245Z,100.00
2019-04-10T23:28:40.598Z,100.00
2019-04-10T23:31:12.882Z,100.00
2019-04-10T23:33:44.463Z,100.00
2019-04-10T23:36:16.074Z,100.00
2019-04-10T23:38:48.047Z,100.00
2019-04-10T23:41:21.193Z,100.00
2019-04-10T23:43:53.582Z,100.00
2019-04-10T23:46:24.840Z,100.00
2019-04-10T23:48:57.228Z,100.00
2019-04-10T23:51:29.374Z,100.00
2019-04-10T23:54:00.924Z,100.00
2019-04-10T23:56:32.893Z,100.00
2019-04-10T23:59:04.570Z,100.00
